Flight Track Log - Related Links

Times and Time Zones

All times are in EDT time to prevent confusion due to time zone crossing. See the SWA2599 flight status page for this flight to view local times or setup timezone preferences in your user account.

Time Position Orientation Groundspeed Altitude Reporting Facility
EDT Latitude Longitude Course Direction KTS MPH feet Rate Location/Type
12:46PM 39.3167 -94.7000 27° Northeast 156 180 1,800  Level Kansas City TRACON
12:47PM 39.3667 -94.6667 27° Northeast 214 246 4,100 2,286 Climbing Kansas City TRACON
12:48PM 39.4167 -94.6167 38° Northeast 250 288 6,600 2,219 Climbing Kansas City TRACON
12:50PM 39.4144 -94.5000 91° East 263 303 9,500 2,280 Climbing Kansas City Center
12:51PM 39.4083 -94.3711 93° East 301 346 12,300 2,903 Climbing Kansas City Center
12:52PM 39.4025 -94.2472 93° East 343 395 15,500 2,903 Climbing Kansas City Center
12:53PM 39.3950 -94.1142 94° East 370 426 18,300 2,688 Climbing Kansas City Center
12:54PM 39.3878 -93.9772 94° East 379 436 21,100 2,508 Climbing Kansas City Center
12:55PM 39.4006 -93.8314 83° East 410 472 23,400 2,496 Climbing Kansas City Center
12:56PM 39.4164 -93.6533 83° East 422 486 26,300 2,371 Climbing Kansas City Center
12:57PM 39.4303 -93.4992 83° East 432 497 28,300 1,820 Climbing Kansas City Center
12:58PM 39.4431 -93.3397 84° East 446 513 30,000 1,381 Climbing Kansas City Center
12:59PM 39.4581 -93.1742 83° East 462 532 31,200 1,258 Climbing Kansas City Center
01:00PM 39.4717 -93.0008 84° East 482 555 32,600 1,597 Climbing Kansas City Center
01:01PM 39.4878 -92.7897 84° East 493 567 34,500 1,476 Climbing Kansas City Center
01:02PM 39.5014 -92.6117 84° East 497 572 35,700 1,220 Climbing Kansas City Center
01:03PM 39.5156 -92.4306 84° East 503 579 37,000 1,258 Climbing Kansas City Center
01:04PM 39.5292 -92.2511 84° East 505 581 38,300 968 Climbing Kansas City Center
01:05PM 39.5439 -92.0361 85° East 505 581 39,000 336 Climbing Kansas City Center
01:06PM 39.5578 -91.8586 84° East 505 581 39,000  Level Kansas City Center
01:07PM 39.5708 -91.6811 84° East 505 581 39,000  Level Kansas City Center
01:09PM 39.5814 -91.5044 86° East 500 575 39,000  Level Kansas City Center
01:10PM 39.5950 -91.3117 85° East 501 577 39,000  Level Kansas City Center
01:11PM 39.6064 -91.1308 85° East 501 577 39,000  Level Kansas City Center
01:12PM 39.6186 -90.9475 85° East 506 582 39,000  Level Kansas City Center
01:13PM 39.6317 -90.7297 85° East 505 581 39,000  Level Kansas City Center
01:14PM 39.6428 -90.5483 85° East 505 581 39,000  Level Kansas City Center
01:15PM 39.6533 -90.3661 86° East 505 581 39,000  Level Kansas City Center
01:16PM 39.6644 -90.1850 85° East 505 581 39,000  Level Kansas City Center
01:17PM 39.6742 -90.0036 86° East 505 581 39,000  Level Kansas City Center
01:18PM 39.6844 -89.8228 86° East 505 581 39,000  Level Kansas City Center
01:19PM 39.6936 -89.6425 86° East 504 580 39,000  Level Kansas City Center
01:20PM 39.7036 -89.4450 86° East 501 577 39,000  Level Kansas City Center
01:21PM 39.7108 -89.2692 87° East 495 570 39,000  Level Kansas City Center
01:22PM 39.7197 -89.0925 86° East 495 570 39,000  Level Kansas City Center
01:23PM 39.7300 -88.8828 86° East 493 567 39,000  Level Kansas City Center
01:24PM 39.7369 -88.7075 87° East 491 565 39,000  Level Kansas City Center
01:25PM 39.7453 -88.5317 86° East 491 565 39,000  Level Kansas City Center
01:26PM 39.7531 -88.3564 87° East 490 564 39,000  Level Kansas City Center
01:27PM 39.7592 -88.1794 87° East 489 563 39,000  Level Kansas City Center
01:28PM 39.7617 -88.0708 88° East 485 558 39,000  Level Indianapolis Center
01:29PM 39.7686 -87.8967 87° East 485 558 39,000  Level Indianapolis Center
01:30PM 39.7747 -87.7175 87° East 492 566 39,000  Level Indianapolis Center
01:31PM 39.7822 -87.5056 87° East 493 567 39,000  Level Indianapolis Center
01:32PM 39.7883 -87.3311 87° East 489 563 39,000  Level Indianapolis Center
01:33PM 39.7939 -87.1533 88° East 489 563 39,000  Level Indianapolis Center
01:34PM 39.7992 -86.9769 88° East 490 564 39,000  Level Indianapolis Center
01:35PM 39.8033 -86.8006 88° East 489 563 39,000  Level Indianapolis Center
01:36PM 39.8089 -86.6231 88° East 490 564 39,000  Level Indianapolis Center
01:37PM 39.8144 -86.4086 88° East 490 564 39,000  Level Indianapolis Center
01:38PM 39.8289 -86.2247 84° East 496 571 39,000  Level Indianapolis Center
01:39PM 39.8483 -86.0456 82° East 494 568 39,000  Level Indianapolis Center
01:40PM 39.8664 -85.8706 82° East 490 564 39,000  Level Indianapolis Center
01:41PM 39.8847 -85.6933 82° East 491 565 39,000  Level Indianapolis Center
01:42PM 39.9014 -85.5175 83° East 491 565 39,000  Level Indianapolis Center
01:43PM 39.9069 -85.3378 88° East 495 570 39,000  Level Indianapolis Center
01:44PM 39.9053 -85.1558 91° East 500 575 39,000  Level Indianapolis Center
01:45PM 39.9064 -84.9372 90° East 501 577 39,000  Level Indianapolis Center
01:47PM 39.9064 -84.5900 91° East 502 578 39,000  Level Indianapolis Center
01:48PM 39.9064 -84.3725 90° East 502 578 39,000  Level Indianapolis Center
01:49PM 39.9056 -84.1914 90° East 502 578 39,000  Level Indianapolis Center
01:50PM 39.9047 -84.0128 90° East 500 575 39,000  Level Indianapolis Center
01:51PM 39.9036 -83.8325 90° East 500 575 39,000  Level Indianapolis Center
01:53PM 39.9019 -83.6531 91° East 499 574 39,000  Level Indianapolis Center
01:54PM 39.8992 -83.4664 91° East 498 573 39,000  Level Indianapolis Center
01:55PM 39.8986 -83.2819 90° East 495 570 39,000  Level Indianapolis Center
01:56PM 39.8961 -83.1056 91° East 491 565 39,000  Level Indianapolis Center
01:57PM 39.8931 -82.9292 91° East 490 564 39,000  Level Indianapolis Center
01:58PM 39.8686 -82.7181 99° East 497 572 39,000  Level Indianapolis Center
01:59PM 39.8444 -82.5419 100° East 497 572 39,000  Level Indianapolis Center
02:00PM 39.8206 -82.3669 100° East 495 570 39,000  Level Indianapolis Center
02:01PM 39.7956 -82.1914 100° East 495 570 39,000  Level Indianapolis Center
02:02PM 39.7706 -82.0169 101° East 494 568 39,000  Level Indianapolis Center
02:03PM 39.7453 -81.8414 101° East 494 568 39,000  Level Indianapolis Center
02:04PM 39.7144 -81.6314 101° East 494 568 39,000  Level Indianapolis Center
02:05PM 39.6892 -81.4544 100° East 494 568 39,000  Level Indianapolis Center
02:06PM 39.6714 -81.3383 101° East 494 568 39,000  Level Cleveland Center
02:07PM 39.6458 -81.1639 101° East 494 568 39,000  Level Cleveland Center
02:08PM 39.6186 -80.9900 101° East 494 568 39,000  Level Cleveland Center
02:09PM 39.5928 -80.8178 101° East 494 568 39,000 -194 Level Cleveland Center
02:10PM 39.5583 -80.6469 105° East 493 567 38,600 -624 Descending Cleveland Center
02:11PM 39.4944 -80.4483 113° Southeast 499 574 37,700 -1,200 Descending Cleveland Center
02:12PM 39.4400 -80.2786 113° Southeast 510 587 36,100 -1,887 Descending Cleveland Center
02:13PM 39.3836 -80.1064 113° Southeast 519 597 33,800 -2,129 Descending Cleveland Center
02:14PM 39.3267 -79.9294 113° Southeast 532 612 31,700 -1,355 Descending Cleveland Center
02:15PM 39.2856 -79.7536 107° East 523 602 31,000 -581 Descending Cleveland Center
02:16PM 39.2694 -79.5306 95° East 524 603 30,500 -823 Descending Cleveland Center
02:17PM 39.2547 -79.3481 96° East 517 595 29,300 -1,617 Descending Cleveland Center
02:18PM 39.2414 -79.1828 96° East 514 592 27,400 -1,842 Descending Washington Center
02:19PM 39.2275 -79.0078 96° East 496 571 25,800 -1,918 Descending Washington Center
02:20PM 39.2114 -78.8383 97° East 489 563 23,500 -2,269 Descending Washington Center
02:21PM 39.1947 -78.6794 98° East 470 541 21,300 -2,237 Descending Washington Center
02:22PM 39.1800 -78.5208 97° East 457 526 19,100 -2,132 Descending Washington Center
02:23PM 39.1628 -78.3675 98° East 440 506 17,000 -1,091 Descending Washington Center
02:24PM 39.1286 -78.2244 107° East 427 491 16,900 -908 Descending Washington Center
02:25PM 39.0939 -78.0869 108° East 414 476 15,200 -1,884 Descending Washington Center
02:26PM 39.0592 -77.9547 109° East 402 463 13,100 -1,377 Descending Washington Center
02:27PM 39.0322 -77.8389 107° East 389 448 12,400 -1,200 Descending Washington Center
02:28PM 38.9989 -77.7125 109° East 352 405 10,700 -1,243 Descending Washington Center
02:29PM 38.9500 -77.5667 113° Southeast 299 344 9,500 -1,114 Descending Potomac TRACON
02:30PM 38.9167 -77.4667 113° Southeast 332 382 8,100 -1,300 Descending Potomac TRACON
02:31PM 38.8833 -77.3667 113° Southeast 284 327 6,900 -1,050 Descending Potomac TRACON
02:32PM 38.8333 -77.2833 128° Southeast 287 330 6,000 -496 Descending Potomac TRACON
02:33PM 38.8000 -77.1833 113° Southeast 280 322 5,900 -496 Descending Potomac TRACON
02:34PM 38.7500 -77.1167 134° Southeast 275 316 5,000 -850 Descending Potomac TRACON
02:35PM 38.6833 -77.1167 180° South 248 285 4,200 -700 Descending Potomac TRACON
02:36PM 38.6333 -77.0833 152° Southeast 263 303 3,600 -600 Descending Potomac TRACON
02:37PM 38.6667 -77.0333 49° Northeast 224 258 3,000 -645 Descending Potomac TRACON
02:38PM 38.7167 -77.0167 15° North 169 194 2,300 -694 Descending Potomac TRACON
02:39PM 38.7667 -77.0333 345° North 166 191 1,600 -750 Descending Potomac TRACON
02:40PM 38.8000 -77.0333 360° North 139 160 800 -800 Descending Potomac TRACON
02:42PM 38.8500 -77.0333 North  Level FlightAware Approximate
02:49PM 38.8519 -77.0377 North  Level Estimated

Login

Don't have an account? Register now (free) for customized features, flight alerts, and more!